sensor_id;sensor_type;location;lat;lon;timestamp;temperature;humidity
947;DHT22;460;48.734;9.152;2023-02-28T00:00:37;-1.00;69.80
947;DHT22;460;48.734;9.152;2023-02-28T00:03:04;-1.10;70.00
947;DHT22;460;48.734;9.152;2023-02-28T00:05:31;-1.00;70.60
947;DHT22;460;48.734;9.152;2023-02-28T00:08:00;-0.90;69.70
947;DHT22;460;48.734;9.152;2023-02-28T00:10:29;-1.10;70.30
947;DHT22;460;48.734;9.152;2023-02-28T00:12:59;-1.10;70.50
947;DHT22;460;48.734;9.152;2023-02-28T00:15:27;-1.20;71.10
947;DHT22;460;48.734;9.152;2023-02-28T00:17:53;-1.20;71.30
947;DHT22;460;48.734;9.152;2023-02-28T00:20:20;-1.10;71.30
947;DHT22;460;48.734;9.152;2023-02-28T00:22:51;-1.10;71.10
947;DHT22;460;48.734;9.152;2023-02-28T00:25:21;-1.30;74.80
947;DHT22;460;48.734;9.152;2023-02-28T00:27:48;-1.20;71.40
947;DHT22;460;48.734;9.152;2023-02-28T00:30:16;-1.30;71.60
947;DHT22;460;48.734;9.152;2023-02-28T00:32:43;-1.30;71.80
947;DHT22;460;48.734;9.152;2023-02-28T00:35:11;-1.40;72.50
947;DHT22;460;48.734;9.152;2023-02-28T00:37:38;-1.40;72.10
947;DHT22;460;48.734;9.152;2023-02-28T00:40:06;-1.20;72.40
947;DHT22;460;48.734;9.152;2023-02-28T00:42:36;-1.40;72.80
947;DHT22;460;48.734;9.152;2023-02-28T00:45:03;-1.50;73.60
947;DHT22;460;48.734;9.152;2023-02-28T00:47:31;-1.60;73.50
947;DHT22;460;48.734;9.152;2023-02-28T00:49:57;-1.60;73.80
947;DHT22;460;48.734;9.152;2023-02-28T00:52:24;-1.60;73.70
947;DHT22;460;48.734;9.152;2023-02-28T00:54:51;-1.50;74.00
947;DHT22;460;48.734;9.152;2023-02-28T00:57:18;-1.40;73.50
947;DHT22;460;48.734;9.152;2023-02-28T00:59:46;-1.50;73.90
947;DHT22;460;48.734;9.152;2023-02-28T01:02:13;-1.60;74.00
947;DHT22;460;48.734;9.152;2023-02-28T01:04:40;-1.60;74.40
947;DHT22;460;48.734;9.152;2023-02-28T01:07:06;-1.60;73.90
947;DHT22;460;48.734;9.152;2023-02-28T01:09:33;-1.50;74.40
947;DHT22;460;48.734;9.152;2023-02-28T01:12:00;-1.60;74.60
947;DHT22;460;48.734;9.152;2023-02-28T01:14:27;-1.50;74.50
947;DHT22;460;48.734;9.152;2023-02-28T01:16:55;-1.60;74.70
947;DHT22;460;48.734;9.152;2023-02-28T01:19:22;-1.50;75.00
947;DHT22;460;48.734;9.152;2023-02-28T01:21:48;-1.60;74.80
947;DHT22;460;48.734;9.152;2023-02-28T01:24:15;-1.50;75.10
947;DHT22;460;48.734;9.152;2023-02-28T01:26:42;-1.60;74.90
947;DHT22;460;48.734;9.152;2023-02-28T01:29:09;-1.70;75.40
947;DHT22;460;48.734;9.152;2023-02-28T01:31:36;-1.60;75.50
947;DHT22;460;48.734;9.152;2023-02-28T01:34:04;-1.60;75.40
947;DHT22;460;48.734;9.152;2023-02-28T01:36:30;-1.50;75.50
947;DHT22;460;48.734;9.152;2023-02-28T01:38:57;-1.50;75.40
947;DHT22;460;48.734;9.152;2023-02-28T01:41:26;-1.50;75.70
947;DHT22;460;48.734;9.152;2023-02-28T01:43:57;-1.50;75.80
947;DHT22;460;48.734;9.152;2023-02-28T01:46:24;-1.50;76.00
947;DHT22;460;48.734;9.152;2023-02-28T01:48:53;-1.70;76.20
947;DHT22;460;48.734;9.152;2023-02-28T01:51:26;-1.70;76.50
947;DHT22;460;48.734;9.152;2023-02-28T01:53:57;-1.80;76.70
947;DHT22;460;48.734;9.152;2023-02-28T01:56:29;-1.60;77.00
947;DHT22;460;48.734;9.152;2023-02-28T01:58:57;-1.60;77.10
947;DHT22;460;48.734;9.152;2023-02-28T02:01:26;-1.70;77.40
947;DHT22;460;48.734;9.152;2023-02-28T02:03:55;-1.80;77.70
947;DHT22;460;48.734;9.152;2023-02-28T02:06:27;-1.70;78.20
947;DHT22;460;48.734;9.152;2023-02-28T02:08:54;-1.70;78.20
947;DHT22;460;48.734;9.152;2023-02-28T02:11:23;-1.80;78.30
947;DHT22;460;48.734;9.152;2023-02-28T02:14:05;-1.70;78.40
947;DHT22;460;48.734;9.152;2023-02-28T02:16:43;-1.80;78.70
947;DHT22;460;48.734;9.152;2023-02-28T02:19:36;-1.80;78.60
947;DHT22;460;48.734;9.152;2023-02-28T02:22:26;-1.80;79.10
947;DHT22;460;48.734;9.152;2023-02-28T02:25:11;-1.70;79.30
947;DHT22;460;48.734;9.152;2023-02-28T02:28:18;-1.80;79.80
947;DHT22;460;48.734;9.152;2023-02-28T02:31:05;-1.80;79.70
947;DHT22;460;48.734;9.152;2023-02-28T02:36:47;-1.70;80.10
947;DHT22;460;48.734;9.152;2023-02-28T02:39:18;-1.70;80.60
947;DHT22;460;48.734;9.152;2023-02-28T02:41:48;-0.90;88.70
947;DHT22;460;48.734;9.152;2023-02-28T02:44:20;-1.80;80.70
947;DHT22;460;48.734;9.152;2023-02-28T02:46:52;-1.70;81.10
947;DHT22;460;48.734;9.152;2023-02-28T02:49:25;-1.70;88.70
947;DHT22;460;48.734;9.152;2023-02-28T02:51:54;-1.70;81.90
947;DHT22;460;48.734;9.152;2023-02-28T02:54:24;-1.80;81.70
947;DHT22;460;48.734;9.152;2023-02-28T02:56:57;-1.70;81.90
947;DHT22;460;48.734;9.152;2023-02-28T02:59:28;-1.60;82.00
947;DHT22;460;48.734;9.152;2023-02-28T03:01:59;-1.50;81.80
947;DHT22;460;48.734;9.152;2023-02-28T03:04:31;-1.60;82.00
947;DHT22;460;48.734;9.152;2023-02-28T03:07:00;-1.70;82.50
947;DHT22;460;48.734;9.152;2023-02-28T03:09:27;-1.60;82.80
947;DHT22;460;48.734;9.152;2023-02-28T03:11:56;-1.60;83.00
947;DHT22;460;48.734;9.152;2023-02-28T03:14:43;-1.60;82.90
947;DHT22;460;48.734;9.152;2023-02-28T03:17:36;-1.50;83.20
947;DHT22;460;48.734;9.152;2023-02-28T03:20:17;-1.50;82.80
947;DHT22;460;48.734;9.152;2023-02-28T03:22:59;-1.50;83.20
947;DHT22;460;48.734;9.152;2023-02-28T03:25:33;-1.50;84.20
947;DHT22;460;48.734;9.152;2023-02-28T03:28:08;-1.60;83.60
947;DHT22;460;48.734;9.152;2023-02-28T03:30:42;-1.40;83.40
947;DHT22;460;48.734;9.152;2023-02-28T03:33:15;-1.50;83.70
947;DHT22;460;48.734;9.152;2023-02-28T03:35:49;-1.50;84.00
947;DHT22;460;48.734;9.152;2023-02-28T03:38:23;-1.40;83.20
947;DHT22;460;48.734;9.152;2023-02-28T03:40:57;-1.30;83.70
947;DHT22;460;48.734;9.152;2023-02-28T03:43:28;-1.40;83.70
947;DHT22;460;48.734;9.152;2023-02-28T03:45:56;-1.40;83.80
947;DHT22;460;48.734;9.152;2023-02-28T03:48:30;-1.40;84.50
947;DHT22;460;48.734;9.152;2023-02-28T03:50:59;-1.50;90.50
947;DHT22;460;48.734;9.152;2023-02-28T03:53:32;-1.50;85.20
947;DHT22;460;48.734;9.152;2023-02-28T03:56:05;-1.40;85.00
947;DHT22;460;48.734;9.152;2023-02-28T03:58:39;-1.20;84.50
947;DHT22;460;48.734;9.152;2023-02-28T04:01:10;-1.20;84.40
947;DHT22;460;48.734;9.152;2023-02-28T04:03:39;-1.30;84.60
947;DHT22;460;48.734;9.152;2023-02-28T04:06:13;-1.30;85.20
947;DHT22;460;48.734;9.152;2023-02-28T04:08:43;-1.20;84.90
947;DHT22;460;48.734;9.152;2023-02-28T04:11:17;-1.10;84.40
947;DHT22;460;48.734;9.152;2023-02-28T04:13:45;-1.10;84.20
947;DHT22;460;48.734;9.152;2023-02-28T04:16:12;-1.10;84.50
947;DHT22;460;48.734;9.152;2023-02-28T04:18:40;-1.10;83.90
947;DHT22;460;48.734;9.152;2023-02-28T04:21:09;-1.10;84.50
947;DHT22;460;48.734;9.152;2023-02-28T04:23:36;-1.00;84.10
947;DHT22;460;48.734;9.152;2023-02-28T04:26:04;-1.10;83.90
947;DHT22;460;48.734;9.152;2023-02-28T04:28:32;-1.00;84.20
947;DHT22;460;48.734;9.152;2023-02-28T04:31:02;-1.00;84.60
947;DHT22;460;48.734;9.152;2023-02-28T04:33:31;-0.90;84.00
947;DHT22;460;48.734;9.152;2023-02-28T04:35:59;-0.90;83.50
947;DHT22;460;48.734;9.152;2023-02-28T04:38:29;-0.80;83.20
947;DHT22;460;48.734;9.152;2023-02-28T04:40:57;-0.90;83.40
947;DHT22;460;48.734;9.152;2023-02-28T04:43:27;-0.90;83.60
947;DHT22;460;48.734;9.152;2023-02-28T04:45:54;-0.90;83.40
947;DHT22;460;48.734;9.152;2023-02-28T04:48:23;-1.00;83.80
947;DHT22;460;48.734;9.152;2023-02-28T04:50:50;-1.00;84.10
947;DHT22;460;48.734;9.152;2023-02-28T04:53:17;-0.90;83.70
947;DHT22;460;48.734;9.152;2023-02-28T04:55:45;-0.90;83.60
947;DHT22;460;48.734;9.152;2023-02-28T04:58:13;-0.90;83.50
947;DHT22;460;48.734;9.152;2023-02-28T05:00:41;-0.90;83.50
947;DHT22;460;48.734;9.152;2023-02-28T05:03:08;-0.90;83.90
947;DHT22;460;48.734;9.152;2023-02-28T05:05:35;-0.90;83.80
947;DHT22;460;48.734;9.152;2023-02-28T05:08:02;-0.90;83.50
947;DHT22;460;48.734;9.152;2023-02-28T05:10:30;-0.90;83.90
947;DHT22;460;48.734;9.152;2023-02-28T05:12:57;-0.90;83.80
947;DHT22;460;48.734;9.152;2023-02-28T05:15:24;-0.90;83.70
947;DHT22;460;48.734;9.152;2023-02-28T05:17:52;-0.90;84.10
947;DHT22;460;48.734;9.152;2023-02-28T05:20:19;-0.90;84.10
947;DHT22;460;48.734;9.152;2023-02-28T05:22:46;-1.20;90.30
947;DHT22;460;48.734;9.152;2023-02-28T05:25:17;-0.90;84.50
947;DHT22;460;48.734;9.152;2023-02-28T05:27:44;-0.90;84.50
947;DHT22;460;48.734;9.152;2023-02-28T05:30:12;-0.90;84.90
947;DHT22;460;48.734;9.152;2023-02-28T05:32:40;-0.90;84.70
947;DHT22;460;48.734;9.152;2023-02-28T05:35:10;-0.90;84.90
947;DHT22;460;48.734;9.152;2023-02-28T05:37:37;-0.90;85.10
947;DHT22;460;48.734;9.152;2023-02-28T05:40:05;-0.90;85.80
947;DHT22;460;48.734;9.152;2023-02-28T05:42:35;-0.90;85.70
947;DHT22;460;48.734;9.152;2023-02-28T05:45:03;-0.80;85.60
947;DHT22;460;48.734;9.152;2023-02-28T05:47:30;-0.90;85.30
947;DHT22;460;48.734;9.152;2023-02-28T05:49:57;-0.80;85.80
947;DHT22;460;48.734;9.152;2023-02-28T05:52:25;-0.70;85.20
947;DHT22;460;48.734;9.152;2023-02-28T05:54:51;-0.80;85.30
947;DHT22;460;48.734;9.152;2023-02-28T05:57:18;-0.80;85.60
947;DHT22;460;48.734;9.152;2023-02-28T05:59:45;-0.70;85.90
947;DHT22;460;48.734;9.152;2023-02-28T06:02:13;-0.70;91.40
947;DHT22;460;48.734;9.152;2023-02-28T06:04:41;-0.80;86.20
947;DHT22;460;48.734;9.152;2023-02-28T06:07:08;-0.80;86.40
947;DHT22;460;48.734;9.152;2023-02-28T06:09:37;-0.70;86.30
947;DHT22;460;48.734;9.152;2023-02-28T06:12:06;-0.80;86.50
947;DHT22;460;48.734;9.152;2023-02-28T06:14:35;-0.60;86.50
947;DHT22;460;48.734;9.152;2023-02-28T06:17:02;-0.70;86.20
947;DHT22;460;48.734;9.152;2023-02-28T06:19:29;-0.70;86.30
947;DHT22;460;48.734;9.152;2023-02-28T06:21:57;-0.70;86.40
947;DHT22;460;48.734;9.152;2023-02-28T06:24:25;-0.60;86.10
947;DHT22;460;48.734;9.152;2023-02-28T06:26:55;-0.70;86.10
947;DHT22;460;48.734;9.152;2023-02-28T06:29:24;-0.70;86.10
947;DHT22;460;48.734;9.152;2023-02-28T06:31:51;-0.80;86.30
947;DHT22;460;48.734;9.152;2023-02-28T06:34:17;-0.80;86.60
947;DHT22;460;48.734;9.152;2023-02-28T06:36:44;-0.70;86.60
947;DHT22;460;48.734;9.152;2023-02-28T06:39:11;-0.70;86.10
947;DHT22;460;48.734;9.152;2023-02-28T06:41:38;-0.60;86.20
947;DHT22;460;48.734;9.152;2023-02-28T06:44:12;-0.70;86.10
947;DHT22;460;48.734;9.152;2023-02-28T06:46:40;-0.70;85.80
947;DHT22;460;48.734;9.152;2023-02-28T06:49:08;-0.70;85.60
947;DHT22;460;48.734;9.152;2023-02-28T06:51:36;-0.70;86.00
947;DHT22;460;48.734;9.152;2023-02-28T06:54:04;-0.70;85.40
947;DHT22;460;48.734;9.152;2023-02-28T06:56:34;-0.80;85.40
947;DHT22;460;48.734;9.152;2023-02-28T06:59:01;-0.70;85.70
947;DHT22;460;48.734;9.152;2023-02-28T07:01:30;-0.60;85.90
947;DHT22;460;48.734;9.152;2023-02-28T07:03:58;-0.60;85.20
947;DHT22;460;48.734;9.152;2023-02-28T07:06:25;-0.50;85.10
947;DHT22;460;48.734;9.152;2023-02-28T07:08:53;-0.50;84.20
947;DHT22;460;48.734;9.152;2023-02-28T07:11:20;-0.50;83.80
947;DHT22;460;48.734;9.152;2023-02-28T07:13:48;-0.60;84.00
947;DHT22;460;48.734;9.152;2023-02-28T07:16:14;-0.60;84.40
947;DHT22;460;48.734;9.152;2023-02-28T07:18:42;-0.60;83.90
947;DHT22;460;48.734;9.152;2023-02-28T07:21:10;-0.50;84.30
947;DHT22;460;48.734;9.152;2023-02-28T07:23:38;-0.50;84.00
947;DHT22;460;48.734;9.152;2023-02-28T07:26:05;-0.50;84.30
947;DHT22;460;48.734;9.152;2023-02-28T07:28:32;-0.60;84.00
947;DHT22;460;48.734;9.152;2023-02-28T07:31:03;-0.50;83.70
947;DHT22;460;48.734;9.152;2023-02-28T07:33:30;-0.50;83.60
947;DHT22;460;48.734;9.152;2023-02-28T07:36:02;-0.40;83.50
947;DHT22;460;48.734;9.152;2023-02-28T07:38:28;-0.40;83.40
947;DHT22;460;48.734;9.152;2023-02-28T07:40:55;-0.40;83.40
947;DHT22;460;48.734;9.152;2023-02-28T07:43:22;-0.40;83.50
947;DHT22;460;48.734;9.152;2023-02-28T07:45:49;-0.40;82.90
947;DHT22;460;48.734;9.152;2023-02-28T07:48:15;-0.30;82.80
947;DHT22;460;48.734;9.152;2023-02-28T07:50:42;-0.30;88.10
947;DHT22;460;48.734;9.152;2023-02-28T07:53:11;-0.20;82.40
947;DHT22;460;48.734;9.152;2023-02-28T07:55:37;-0.20;82.40
947;DHT22;460;48.734;9.152;2023-02-28T07:58:04;-0.20;82.50
947;DHT22;460;48.734;9.152;2023-02-28T08:00:31;-0.20;82.30
947;DHT22;460;48.734;9.152;2023-02-28T08:02:58;-0.30;88.50
947;DHT22;460;48.734;9.152;2023-02-28T08:05:25;-0.30;82.10
947;DHT22;460;48.734;9.152;2023-02-28T08:07:51;-0.20;82.20
947;DHT22;460;48.734;9.152;2023-02-28T08:10:20;-0.20;81.90
947;DHT22;460;48.734;9.152;2023-02-28T08:12:46;-0.20;82.00
947;DHT22;460;48.734;9.152;2023-02-28T08:15:13;-0.20;82.40
947;DHT22;460;48.734;9.152;2023-02-28T08:17:40;-0.20;82.20
947;DHT22;460;48.734;9.152;2023-02-28T08:20:09;-0.20;82.80
947;DHT22;460;48.734;9.152;2023-02-28T08:22:36;-0.10;82.20
947;DHT22;460;48.734;9.152;2023-02-28T08:25:06;-0.10;81.70
947;DHT22;460;48.734;9.152;2023-02-28T08:27:44;-0.10;82.90
947;DHT22;460;48.734;9.152;2023-02-28T08:30:12;0.00;82.20
947;DHT22;460;48.734;9.152;2023-02-28T08:32:39;0.10;82.10
947;DHT22;460;48.734;9.152;2023-02-28T08:35:07;0.10;81.80
947;DHT22;460;48.734;9.152;2023-02-28T08:37:34;0.10;81.50
947;DHT22;460;48.734;9.152;2023-02-28T08:40:01;0.00;81.70
947;DHT22;460;48.734;9.152;2023-02-28T08:42:29;0.10;82.10
947;DHT22;460;48.734;9.152;2023-02-28T08:44:57;0.10;82.20
947;DHT22;460;48.734;9.152;2023-02-28T08:47:24;0.00;82.10
947;DHT22;460;48.734;9.152;2023-02-28T08:49:51;0.10;81.90
947;DHT22;460;48.734;9.152;2023-02-28T08:52:18;0.20;82.30
947;DHT22;460;48.734;9.152;2023-02-28T08:54:45;0.20;82.10
947;DHT22;460;48.734;9.152;2023-02-28T08:57:12;0.20;81.60
947;DHT22;460;48.734;9.152;2023-02-28T08:59:39;0.10;87.10
947;DHT22;460;48.734;9.152;2023-02-28T09:02:08;0.20;81.40
947;DHT22;460;48.734;9.152;2023-02-28T09:04:39;0.10;87.20
947;DHT22;460;48.734;9.152;2023-02-28T09:07:10;0.20;80.80
947;DHT22;460;48.734;9.152;2023-02-28T09:09:37;0.20;81.00
947;DHT22;460;48.734;9.152;2023-02-28T09:12:19;0.10;81.40
947;DHT22;460;48.734;9.152;2023-02-28T09:14:49;0.10;81.80
947;DHT22;460;48.734;9.152;2023-02-28T09:17:17;0.30;81.60
947;DHT22;460;48.734;9.152;2023-02-28T09:19:44;0.20;81.10
947;DHT22;460;48.734;9.152;2023-02-28T09:22:11;0.30;81.00
947;DHT22;460;48.734;9.152;2023-02-28T09:24:38;0.30;80.90
947;DHT22;460;48.734;9.152;2023-02-28T09:27:06;0.40;80.80
947;DHT22;460;48.734;9.152;2023-02-28T09:29:34;0.40;80.70
947;DHT22;460;48.734;9.152;2023-02-28T09:32:01;0.30;80.60
947;DHT22;460;48.734;9.152;2023-02-28T09:34:29;0.50;80.70
947;DHT22;460;48.734;9.152;2023-02-28T09:36:56;0.40;80.30
947;DHT22;460;48.734;9.152;2023-02-28T09:39:23;0.50;80.60
947;DHT22;460;48.734;9.152;2023-02-28T09:41:53;0.50;79.80
947;DHT22;460;48.734;9.152;2023-02-28T09:44:25;0.50;79.70
947;DHT22;460;48.734;9.152;2023-02-28T09:46:57;0.50;80.10
947;DHT22;460;48.734;9.152;2023-02-28T09:49:33;0.60;87.10
947;DHT22;460;48.734;9.152;2023-02-28T09:52:03;0.50;79.70
947;DHT22;460;48.734;9.152;2023-02-28T09:54:33;0.60;79.30
947;DHT22;460;48.734;9.152;2023-02-28T09:57:04;0.60;79.10
947;DHT22;460;48.734;9.152;2023-02-28T09:59:40;0.60;79.60
947;DHT22;460;48.734;9.152;2023-02-28T10:02:29;0.70;80.30
947;DHT22;460;48.734;9.152;2023-02-28T10:05:09;0.90;79.50
947;DHT22;460;48.734;9.152;2023-02-28T10:07:55;1.00;79.20
947;DHT22;460;48.734;9.152;2023-02-28T10:10:27;1.00;79.20
947;DHT22;460;48.734;9.152;2023-02-28T10:12:59;1.10;77.80
947;DHT22;460;48.734;9.152;2023-02-28T10:15:30;0.90;85.30
947;DHT22;460;48.734;9.152;2023-02-28T10:18:00;1.10;78.00
947;DHT22;460;48.734;9.152;2023-02-28T10:20:33;1.10;78.00
947;DHT22;460;48.734;9.152;2023-02-28T10:23:05;1.20;78.10
947;DHT22;460;48.734;9.152;2023-02-28T10:25:36;1.20;77.90
947;DHT22;460;48.734;9.152;2023-02-28T10:28:10;1.20;77.60
947;DHT22;460;48.734;9.152;2023-02-28T10:30:39;1.20;78.10
947;DHT22;460;48.734;9.152;2023-02-28T10:33:18;1.20;77.40
947;DHT22;460;48.734;9.152;2023-02-28T10:35:47;1.10;77.60
947;DHT22;460;48.734;9.152;2023-02-28T10:38:18;1.20;78.00
947;DHT22;460;48.734;9.152;2023-02-28T10:40:45;1.40;78.00
947;DHT22;460;48.734;9.152;2023-02-28T10:43:21;1.50;77.50
947;DHT22;460;48.734;9.152;2023-02-28T10:46:01;1.40;77.70
947;DHT22;460;48.734;9.152;2023-02-28T10:48:34;1.40;77.80
947;DHT22;460;48.734;9.152;2023-02-28T10:51:04;1.60;77.70
947;DHT22;460;48.734;9.152;2023-02-28T10:53:45;1.80;77.30
947;DHT22;460;48.734;9.152;2023-02-28T10:56:17;1.80;76.90
947;DHT22;460;48.734;9.152;2023-02-28T10:58:52;1.80;77.00
947;DHT22;460;48.734;9.152;2023-02-28T11:01:21;1.90;76.20
947;DHT22;460;48.734;9.152;2023-02-28T11:03:48;2.00;76.20
947;DHT22;460;48.734;9.152;2023-02-28T11:06:19;2.10;75.90
947;DHT22;460;48.734;9.152;2023-02-28T11:08:50;2.20;75.40
947;DHT22;460;48.734;9.152;2023-02-28T11:11:18;2.30;74.30
947;DHT22;460;48.734;9.152;2023-02-28T11:13:47;2.30;73.80
947;DHT22;460;48.734;9.152;2023-02-28T11:16:17;2.30;73.60
947;DHT22;460;48.734;9.152;2023-02-28T11:18:47;2.30;74.20
947;DHT22;460;48.734;9.152;2023-02-28T11:21:25;2.40;74.10
947;DHT22;460;48.734;9.152;2023-02-28T11:23:58;2.40;74.60
947;DHT22;460;48.734;9.152;2023-02-28T11:26:39;2.40;74.50
947;DHT22;460;48.734;9.152;2023-02-28T11:29:17;2.50;74.20
947;DHT22;460;48.734;9.152;2023-02-28T11:32:05;2.40;74.20
947;DHT22;460;48.734;9.152;2023-02-28T11:34:41;2.60;81.60
947;DHT22;460;48.734;9.152;2023-02-28T11:37:59;2.50;75.90
947;DHT22;460;48.734;9.152;2023-02-28T11:41:43;2.50;74.30
947;DHT22;460;48.734;9.152;2023-02-28T11:44:55;2.40;74.00
947;DHT22;460;48.734;9.152;2023-02-28T11:51:26;2.30;74.60
947;DHT22;460;48.734;9.152;2023-02-28T11:54:31;2.40;74.20
947;DHT22;460;48.734;9.152;2023-02-28T11:57:38;2.80;81.40
947;DHT22;460;48.734;9.152;2023-02-28T12:00:26;2.40;74.50
947;DHT22;460;48.734;9.152;2023-02-28T12:03:24;2.50;74.50
947;DHT22;460;48.734;9.152;2023-02-28T12:06:33;2.70;73.90
947;DHT22;460;48.734;9.152;2023-02-28T12:09:44;2.60;73.40
947;DHT22;460;48.734;9.152;2023-02-28T12:12:26;2.70;73.60
947;DHT22;460;48.734;9.152;2023-02-28T12:18:32;3.00;73.60
947;DHT22;460;48.734;9.152;2023-02-28T12:21:10;3.00;73.20
947;DHT22;460;48.734;9.152;2023-02-28T12:23:56;3.10;72.30
947;DHT22;460;48.734;9.152;2023-02-28T12:26:36;3.20;72.80
947;DHT22;460;48.734;9.152;2023-02-28T12:29:17;3.30;72.00
947;DHT22;460;48.734;9.152;2023-02-28T12:32:02;3.60;77.10
947;DHT22;460;48.734;9.152;2023-02-28T12:34:57;3.20;71.00
947;DHT22;460;48.734;9.152;2023-02-28T12:37:31;3.20;71.50
947;DHT22;460;48.734;9.152;2023-02-28T12:40:03;3.30;77.70
947;DHT22;460;48.734;9.152;2023-02-28T12:42:38;3.30;72.90
947;DHT22;460;48.734;9.152;2023-02-28T12:45:10;3.40;72.20
947;DHT22;460;48.734;9.152;2023-02-28T12:47:41;3.40;73.30
947;DHT22;460;48.734;9.152;2023-02-28T12:50:10;3.50;72.70
947;DHT22;460;48.734;9.152;2023-02-28T12:52:41;3.70;72.00
947;DHT22;460;48.734;9.152;2023-02-28T12:55:17;3.70;71.20
947;DHT22;460;48.734;9.152;2023-02-28T12:57:52;3.80;71.30
947;DHT22;460;48.734;9.152;2023-02-28T13:00:28;3.90;71.10
947;DHT22;460;48.734;9.152;2023-02-28T13:03:17;3.80;70.50
947;DHT22;460;48.734;9.152;2023-02-28T13:06:08;3.80;70.70
947;DHT22;460;48.734;9.152;2023-02-28T13:09:03;3.80;70.70
947;DHT22;460;48.734;9.152;2023-02-28T13:11:33;3.90;75.10
947;DHT22;460;48.734;9.152;2023-02-28T13:14:04;4.00;70.30
947;DHT22;460;48.734;9.152;2023-02-28T13:16:54;4.00;69.50
947;DHT22;460;48.734;9.152;2023-02-28T13:19:22;4.00;69.70
947;DHT22;460;48.734;9.152;2023-02-28T13:21:51;4.00;70.80
947;DHT22;460;48.734;9.152;2023-02-28T13:24:45;4.00;68.80
947;DHT22;460;48.734;9.152;2023-02-28T13:27:33;3.90;68.70
947;DHT22;460;48.734;9.152;2023-02-28T13:33:28;3.80;69.60
947;DHT22;460;48.734;9.152;2023-02-28T13:36:11;3.90;69.00
947;DHT22;460;48.734;9.152;2023-02-28T13:38:49;3.90;69.30
947;DHT22;460;48.734;9.152;2023-02-28T13:41:47;3.90;70.00
947;DHT22;460;48.734;9.152;2023-02-28T13:44:16;4.10;70.50
947;DHT22;460;48.734;9.152;2023-02-28T13:47:27;4.00;69.50
947;DHT22;460;48.734;9.152;2023-02-28T13:50:14;4.10;69.70
947;DHT22;460;48.734;9.152;2023-02-28T13:52:47;4.20;69.60
947;DHT22;460;48.734;9.152;2023-02-28T13:55:27;4.40;69.80
947;DHT22;460;48.734;9.152;2023-02-28T13:58:09;4.40;68.80
947;DHT22;460;48.734;9.152;2023-02-28T14:00:49;4.50;68.80
947;DHT22;460;48.734;9.152;2023-02-28T14:03:41;4.50;67.60
947;DHT22;460;48.734;9.152;2023-02-28T14:06:23;4.40;68.20
947;DHT22;460;48.734;9.152;2023-02-28T14:08:57;4.70;73.50
947;DHT22;460;48.734;9.152;2023-02-28T14:11:28;4.60;67.50
947;DHT22;460;48.734;9.152;2023-02-28T14:13:57;4.50;72.70
947;DHT22;460;48.734;9.152;2023-02-28T14:16:25;4.60;68.10
947;DHT22;460;48.734;9.152;2023-02-28T14:18:57;4.60;68.00
947;DHT22;460;48.734;9.152;2023-02-28T14:21:28;4.50;68.20
947;DHT22;460;48.734;9.152;2023-02-28T14:24:32;4.50;67.80
947;DHT22;460;48.734;9.152;2023-02-28T14:27:28;4.60;68.00
947;DHT22;460;48.734;9.152;2023-02-28T14:33:13;4.60;68.30
947;DHT22;460;48.734;9.152;2023-02-28T14:35:54;4.70;68.10
947;DHT22;460;48.734;9.152;2023-02-28T14:38:27;4.70;67.50
947;DHT22;460;48.734;9.152;2023-02-28T14:41:00;4.80;66.90
947;DHT22;460;48.734;9.152;2023-02-28T14:43:28;4.80;67.50
947;DHT22;460;48.734;9.152;2023-02-28T14:45:57;4.80;66.70
947;DHT22;460;48.734;9.152;2023-02-28T14:48:26;4.80;66.60
947;DHT22;460;48.734;9.152;2023-02-28T14:50:55;4.80;66.90
947;DHT22;460;48.734;9.152;2023-02-28T14:53:26;4.80;66.70
947;DHT22;460;48.734;9.152;2023-02-28T14:55:53;4.80;67.30
947;DHT22;460;48.734;9.152;2023-02-28T14:58:23;4.80;66.50
947;DHT22;460;48.734;9.152;2023-02-28T15:00:52;4.80;67.30
947;DHT22;460;48.734;9.152;2023-02-28T15:03:22;4.80;67.00
947;DHT22;460;48.734;9.152;2023-02-28T15:05:53;4.80;66.30
947;DHT22;460;48.734;9.152;2023-02-28T15:08:20;4.90;66.70
947;DHT22;460;48.734;9.152;2023-02-28T15:10:54;4.90;65.50
947;DHT22;460;48.734;9.152;2023-02-28T15:13:22;5.80;72.80
947;DHT22;460;48.734;9.152;2023-02-28T15:15:52;5.80;65.70
947;DHT22;460;48.734;9.152;2023-02-28T15:18:28;5.80;66.20
947;DHT22;460;48.734;9.152;2023-02-28T15:20:59;6.60;70.60
947;DHT22;460;48.734;9.152;2023-02-28T15:23:29;6.60;65.00
947;DHT22;460;48.734;9.152;2023-02-28T15:25:58;6.80;64.10
947;DHT22;460;48.734;9.152;2023-02-28T15:28:25;7.30;64.30
947;DHT22;460;48.734;9.152;2023-02-28T15:30:56;7.80;61.20
947;DHT22;460;48.734;9.152;2023-02-28T15:33:25;8.40;64.50
947;DHT22;460;48.734;9.152;2023-02-28T15:36:03;8.30;59.20
947;DHT22;460;48.734;9.152;2023-02-28T15:38:34;8.50;59.00
947;DHT22;460;48.734;9.152;2023-02-28T15:41:02;8.60;58.90
947;DHT22;460;48.734;9.152;2023-02-28T15:43:35;8.50;58.80
947;DHT22;460;48.734;9.152;2023-02-28T15:46:03;8.40;58.80
947;DHT22;460;48.734;9.152;2023-02-28T15:48:33;8.50;59.10
947;DHT22;460;48.734;9.152;2023-02-28T15:51:06;8.50;58.60
947;DHT22;460;48.734;9.152;2023-02-28T15:53:36;8.10;58.10
947;DHT22;460;48.734;9.152;2023-02-28T15:56:12;7.60;57.90
947;DHT22;460;48.734;9.152;2023-02-28T15:58:42;7.10;58.10
947;DHT22;460;48.734;9.152;2023-02-28T16:01:19;6.90;59.00
947;DHT22;460;48.734;9.152;2023-02-28T16:03:50;6.60;59.20
947;DHT22;460;48.734;9.152;2023-02-28T16:06:32;6.20;59.90
947;DHT22;460;48.734;9.152;2023-02-28T16:08:59;6.00;60.10
947;DHT22;460;48.734;9.152;2023-02-28T16:11:28;5.70;61.00
947;DHT22;460;48.734;9.152;2023-02-28T16:13:56;5.60;61.70
947;DHT22;460;48.734;9.152;2023-02-28T16:16:24;5.40;62.30
947;DHT22;460;48.734;9.152;2023-02-28T16:18:53;5.30;62.50
947;DHT22;460;48.734;9.152;2023-02-28T16:21:20;5.00;63.10
947;DHT22;460;48.734;9.152;2023-02-28T16:23:47;5.00;63.90
947;DHT22;460;48.734;9.152;2023-02-28T16:26:19;4.80;64.50
947;DHT22;460;48.734;9.152;2023-02-28T16:28:49;4.60;65.30
947;DHT22;460;48.734;9.152;2023-02-28T16:31:16;4.50;65.70
947;DHT22;460;48.734;9.152;2023-02-28T16:33:44;4.50;65.60
947;DHT22;460;48.734;9.152;2023-02-28T16:36:14;4.40;65.40
947;DHT22;460;48.734;9.152;2023-02-28T16:38:42;4.30;66.20
947;DHT22;460;48.734;9.152;2023-02-28T16:41:12;4.20;66.40
947;DHT22;460;48.734;9.152;2023-02-28T16:43:43;4.20;66.80
947;DHT22;460;48.734;9.152;2023-02-28T16:46:11;4.10;67.00
947;DHT22;460;48.734;9.152;2023-02-28T16:48:39;3.90;75.60
947;DHT22;460;48.734;9.152;2023-02-28T16:53:33;3.80;67.10
947;DHT22;460;48.734;9.152;2023-02-28T16:56:00;3.80;67.50
947;DHT22;460;48.734;9.152;2023-02-28T16:58:28;3.70;78.00
947;DHT22;460;48.734;9.152;2023-02-28T17:00:55;3.80;69.70
947;DHT22;460;48.734;9.152;2023-02-28T17:03:29;3.90;79.20
947;DHT22;460;48.734;9.152;2023-02-28T17:05:56;3.50;68.60
947;DHT22;460;48.734;9.152;2023-02-28T17:08:23;3.50;69.00
947;DHT22;460;48.734;9.152;2023-02-28T17:10:50;3.40;69.80
947;DHT22;460;48.734;9.152;2023-02-28T17:13:17;3.40;78.40
947;DHT22;460;48.734;9.152;2023-02-28T17:15:45;3.30;69.70
947;DHT22;460;48.734;9.152;2023-02-28T17:18:14;3.30;69.50
947;DHT22;460;48.734;9.152;2023-02-28T17:20:43;3.20;80.30
947;DHT22;460;48.734;9.152;2023-02-28T17:23:10;3.20;69.80
947;DHT22;460;48.734;9.152;2023-02-28T17:25:37;3.00;80.80
947;DHT22;460;48.734;9.152;2023-02-28T17:28:04;2.90;70.60
947;DHT22;460;48.734;9.152;2023-02-28T17:30:33;2.80;80.80
947;DHT22;460;48.734;9.152;2023-02-28T17:33:01;2.80;71.80
947;DHT22;460;48.734;9.152;2023-02-28T17:35:28;2.70;81.90